sensor_id;sensor_type;location;lat;lon;timestamp;P1;durP1;ratioP1;P2;durP2;ratioP2
20870;SDS011;10595;51.218;3.452;2024-01-25T00:00:17;44.87;;;7.40;;
20870;SDS011;10595;51.218;3.452;2024-01-25T00:02:43;39.80;;;7.43;;
20870;SDS011;10595;51.218;3.452;2024-01-25T00:05:09;43.13;;;7.77;;
20870;SDS011;10595;51.218;3.452;2024-01-25T00:07:44;45.40;;;7.03;;
20870;SDS011;10595;51.218;3.452;2024-01-25T00:10:10;53.33;;;8.93;;
20870;SDS011;10595;51.218;3.452;2024-01-25T00:12:36;51.93;;;8.10;;
20870;SDS011;10595;51.218;3.452;2024-01-25T00:15:02;51.07;;;8.90;;
20870;SDS011;10595;51.218;3.452;2024-01-25T00:17:29;42.67;;;8.17;;
20870;SDS011;10595;51.218;3.452;2024-01-25T00:19:54;43.07;;;7.63;;
20870;SDS011;10595;51.218;3.452;2024-01-25T00:22:21;51.60;;;7.63;;
20870;SDS011;10595;51.218;3.452;2024-01-25T00:24:47;39.97;;;7.97;;
20870;SDS011;10595;51.218;3.452;2024-01-25T00:27:13;51.10;;;8.27;;
20870;SDS011;10595;51.218;3.452;2024-01-25T00:29:39;45.70;;;7.77;;
20870;SDS011;10595;51.218;3.452;2024-01-25T00:32:05;43.30;;;8.17;;
20870;SDS011;10595;51.218;3.452;2024-01-25T00:34:31;37.07;;;6.80;;
20870;SDS011;10595;51.218;3.452;2024-01-25T00:36:57;48.17;;;8.70;;
20870;SDS011;10595;51.218;3.452;2024-01-25T00:39:23;47.07;;;9.03;;
20870;SDS011;10595;51.218;3.452;2024-01-25T00:41:50;39.13;;;7.10;;
20870;SDS011;10595;51.218;3.452;2024-01-25T00:44:17;47.43;;;7.03;;
20870;SDS011;10595;51.218;3.452;2024-01-25T00:46:43;37.87;;;7.33;;
20870;SDS011;10595;51.218;3.452;2024-01-25T00:49:12;48.93;;;7.60;;
20870;SDS011;10595;51.218;3.452;2024-01-25T00:51:38;49.93;;;7.27;;
20870;SDS011;10595;51.218;3.452;2024-01-25T00:54:07;39.73;;;7.90;;
20870;SDS011;10595;51.218;3.452;2024-01-25T00:56:33;45.93;;;7.53;;
20870;SDS011;10595;51.218;3.452;2024-01-25T00:58:59;47.00;;;7.83;;
20870;SDS011;10595;51.218;3.452;2024-01-25T01:01:25;50.30;;;8.07;;
20870;SDS011;10595;51.218;3.452;2024-01-25T01:03:52;49.47;;;7.83;;
20870;SDS011;10595;51.218;3.452;2024-01-25T01:06:21;47.33;;;8.60;;
20870;SDS011;10595;51.218;3.452;2024-01-25T01:08:47;46.30;;;7.17;;
20870;SDS011;10595;51.218;3.452;2024-01-25T01:11:13;42.40;;;7.77;;
20870;SDS011;10595;51.218;3.452;2024-01-25T01:13:39;45.00;;;7.07;;
20870;SDS011;10595;51.218;3.452;2024-01-25T01:16:05;51.30;;;8.20;;
20870;SDS011;10595;51.218;3.452;2024-01-25T01:18:31;55.23;;;7.83;;
20870;SDS011;10595;51.218;3.452;2024-01-25T01:20:57;52.17;;;8.47;;
20870;SDS011;10595;51.218;3.452;2024-01-25T01:23:23;50.60;;;7.83;;
20870;SDS011;10595;51.218;3.452;2024-01-25T01:25:49;50.87;;;7.33;;
20870;SDS011;10595;51.218;3.452;2024-01-25T01:28:15;43.90;;;7.30;;
20870;SDS011;10595;51.218;3.452;2024-01-25T01:30:41;51.57;;;8.43;;
20870;SDS011;10595;51.218;3.452;2024-01-25T01:33:10;51.67;;;8.07;;
20870;SDS011;10595;51.218;3.452;2024-01-25T01:35:36;47.43;;;8.10;;
20870;SDS011;10595;51.218;3.452;2024-01-25T01:38:02;49.93;;;7.03;;
20870;SDS011;10595;51.218;3.452;2024-01-25T01:40:28;48.73;;;7.93;;
20870;SDS011;10595;51.218;3.452;2024-01-25T01:43:00;45.63;;;6.90;;
20870;SDS011;10595;51.218;3.452;2024-01-25T01:45:26;42.37;;;7.80;;
20870;SDS011;10595;51.218;3.452;2024-01-25T01:47:53;48.03;;;8.13;;
20870;SDS011;10595;51.218;3.452;2024-01-25T01:50:19;51.10;;;7.20;;
20870;SDS011;10595;51.218;3.452;2024-01-25T01:52:45;44.03;;;7.30;;
20870;SDS011;10595;51.218;3.452;2024-01-25T01:55:11;42.77;;;6.83;;
20870;SDS011;10595;51.218;3.452;2024-01-25T01:57:37;50.20;;;7.67;;
20870;SDS011;10595;51.218;3.452;2024-01-25T02:00:04;56.90;;;8.93;;
20870;SDS011;10595;51.218;3.452;2024-01-25T02:02:33;42.37;;;7.33;;
20870;SDS011;10595;51.218;3.452;2024-01-25T02:04:59;42.43;;;7.00;;
20870;SDS011;10595;51.218;3.452;2024-01-25T02:07:26;45.33;;;7.50;;
20870;SDS011;10595;51.218;3.452;2024-01-25T02:09:52;42.87;;;7.27;;
20870;SDS011;10595;51.218;3.452;2024-01-25T02:12:18;36.43;;;6.87;;
20870;SDS011;10595;51.218;3.452;2024-01-25T02:14:44;42.80;;;6.77;;
20870;SDS011;10595;51.218;3.452;2024-01-25T02:17:10;42.83;;;6.90;;
20870;SDS011;10595;51.218;3.452;2024-01-25T02:19:36;48.83;;;7.73;;
20870;SDS011;10595;51.218;3.452;2024-01-25T02:22:04;40.50;;;7.07;;
20870;SDS011;10595;51.218;3.452;2024-01-25T02:24:30;42.70;;;7.33;;
20870;SDS011;10595;51.218;3.452;2024-01-25T02:26:56;38.07;;;6.47;;
20870;SDS011;10595;51.218;3.452;2024-01-25T02:29:22;42.57;;;6.20;;
20870;SDS011;10595;51.218;3.452;2024-01-25T02:31:48;43.47;;;7.07;;
20870;SDS011;10595;51.218;3.452;2024-01-25T02:34:14;44.17;;;7.20;;
20870;SDS011;10595;51.218;3.452;2024-01-25T02:36:41;39.53;;;7.53;;
20870;SDS011;10595;51.218;3.452;2024-01-25T02:39:07;44.50;;;7.17;;
20870;SDS011;10595;51.218;3.452;2024-01-25T02:41:33;37.40;;;7.00;;
20870;SDS011;10595;51.218;3.452;2024-01-25T02:44:00;36.57;;;6.77;;
20870;SDS011;10595;51.218;3.452;2024-01-25T02:46:26;33.60;;;5.57;;
20870;SDS011;10595;51.218;3.452;2024-01-25T02:48:52;37.13;;;7.53;;
20870;SDS011;10595;51.218;3.452;2024-01-25T02:51:18;40.03;;;6.13;;
20870;SDS011;10595;51.218;3.452;2024-01-25T02:53:44;39.83;;;7.10;;
20870;SDS011;10595;51.218;3.452;2024-01-25T02:56:10;35.37;;;6.33;;
20870;SDS011;10595;51.218;3.452;2024-01-25T02:58:37;37.30;;;6.17;;
20870;SDS011;10595;51.218;3.452;2024-01-25T03:01:03;30.03;;;5.23;;
20870;SDS011;10595;51.218;3.452;2024-01-25T03:03:29;35.70;;;5.83;;
20870;SDS011;10595;51.218;3.452;2024-01-25T03:05:55;32.73;;;5.47;;
20870;SDS011;10595;51.218;3.452;2024-01-25T03:08:21;35.20;;;6.43;;
20870;SDS011;10595;51.218;3.452;2024-01-25T03:10:47;26.87;;;5.50;;
20870;SDS011;10595;51.218;3.452;2024-01-25T03:13:14;29.30;;;5.73;;
20870;SDS011;10595;51.218;3.452;2024-01-25T03:15:41;31.47;;;5.63;;
20870;SDS011;10595;51.218;3.452;2024-01-25T03:18:07;32.57;;;5.97;;
20870;SDS011;10595;51.218;3.452;2024-01-25T03:20:33;32.53;;;6.80;;
20870;SDS011;10595;51.218;3.452;2024-01-25T03:22:59;33.47;;;6.17;;
20870;SDS011;10595;51.218;3.452;2024-01-25T03:25:25;32.63;;;5.83;;
20870;SDS011;10595;51.218;3.452;2024-01-25T03:27:51;42.13;;;6.73;;
20870;SDS011;10595;51.218;3.452;2024-01-25T03:30:17;42.00;;;6.70;;
20870;SDS011;10595;51.218;3.452;2024-01-25T03:32:43;35.40;;;5.50;;
20870;SDS011;10595;51.218;3.452;2024-01-25T03:35:09;26.37;;;6.23;;
20870;SDS011;10595;51.218;3.452;2024-01-25T03:37:35;28.63;;;5.07;;
20870;SDS011;10595;51.218;3.452;2024-01-25T03:40:02;39.93;;;6.57;;
20870;SDS011;10595;51.218;3.452;2024-01-25T03:42:28;33.03;;;6.50;;
20870;SDS011;10595;51.218;3.452;2024-01-25T03:44:54;31.37;;;6.20;;
20870;SDS011;10595;51.218;3.452;2024-01-25T03:47:20;37.40;;;5.97;;
20870;SDS011;10595;51.218;3.452;2024-01-25T03:49:47;37.33;;;6.77;;
20870;SDS011;10595;51.218;3.452;2024-01-25T03:52:13;39.03;;;6.43;;
20870;SDS011;10595;51.218;3.452;2024-01-25T03:54:39;46.83;;;6.87;;
20870;SDS011;10595;51.218;3.452;2024-01-25T03:57:05;41.20;;;7.27;;
20870;SDS011;10595;51.218;3.452;2024-01-25T03:59:31;66.37;;;8.07;;
20870;SDS011;10595;51.218;3.452;2024-01-25T04:01:57;48.83;;;6.97;;
20870;SDS011;10595;51.218;3.452;2024-01-25T04:04:23;44.00;;;7.60;;
20870;SDS011;10595;51.218;3.452;2024-01-25T04:06:49;44.20;;;6.73;;
20870;SDS011;10595;51.218;3.452;2024-01-25T04:09:15;34.80;;;6.10;;
20870;SDS011;10595;51.218;3.452;2024-01-25T04:11:41;39.73;;;7.13;;
20870;SDS011;10595;51.218;3.452;2024-01-25T04:14:07;39.60;;;7.60;;
20870;SDS011;10595;51.218;3.452;2024-01-25T04:16:33;44.03;;;6.97;;
20870;SDS011;10595;51.218;3.452;2024-01-25T04:19:00;43.63;;;7.10;;
20870;SDS011;10595;51.218;3.452;2024-01-25T04:21:26;39.90;;;7.37;;
20870;SDS011;10595;51.218;3.452;2024-01-25T04:23:53;42.67;;;7.73;;
20870;SDS011;10595;51.218;3.452;2024-01-25T04:26:19;33.50;;;6.53;;
20870;SDS011;10595;51.218;3.452;2024-01-25T04:28:45;35.93;;;6.47;;
20870;SDS011;10595;51.218;3.452;2024-01-25T04:31:11;45.70;;;7.63;;
20870;SDS011;10595;51.218;3.452;2024-01-25T04:33:37;34.67;;;6.40;;
20870;SDS011;10595;51.218;3.452;2024-01-25T04:36:05;30.67;;;6.57;;
20870;SDS011;10595;51.218;3.452;2024-01-25T04:38:31;33.77;;;6.20;;
20870;SDS011;10595;51.218;3.452;2024-01-25T04:40:57;23.50;;;5.13;;
20870;SDS011;10595;51.218;3.452;2024-01-25T04:43:23;26.00;;;6.03;;
20870;SDS011;10595;51.218;3.452;2024-01-25T04:45:49;42.60;;;6.63;;
20870;SDS011;10595;51.218;3.452;2024-01-25T04:48:15;35.67;;;7.47;;
20870;SDS011;10595;51.218;3.452;2024-01-25T04:50:41;52.23;;;7.50;;
20870;SDS011;10595;51.218;3.452;2024-01-25T04:53:07;51.10;;;8.63;;
20870;SDS011;10595;51.218;3.452;2024-01-25T04:55:33;44.17;;;7.47;;
20870;SDS011;10595;51.218;3.452;2024-01-25T04:58:00;48.23;;;8.33;;
20870;SDS011;10595;51.218;3.452;2024-01-25T05:00:26;38.60;;;7.80;;
20870;SDS011;10595;51.218;3.452;2024-01-25T05:02:52;34.17;;;6.93;;
20870;SDS011;10595;51.218;3.452;2024-01-25T05:05:18;25.63;;;5.97;;
20870;SDS011;10595;51.218;3.452;2024-01-25T05:07:44;31.10;;;6.00;;
20870;SDS011;10595;51.218;3.452;2024-01-25T05:10:10;26.90;;;5.13;;
20870;SDS011;10595;51.218;3.452;2024-01-25T05:12:36;31.40;;;6.13;;
20870;SDS011;10595;51.218;3.452;2024-01-25T05:15:02;25.37;;;5.23;;
20870;SDS011;10595;51.218;3.452;2024-01-25T05:17:28;35.93;;;6.03;;
20870;SDS011;10595;51.218;3.452;2024-01-25T05:19:54;37.03;;;7.00;;
20870;SDS011;10595;51.218;3.452;2024-01-25T05:22:20;36.37;;;7.67;;
20870;SDS011;10595;51.218;3.452;2024-01-25T05:24:47;41.77;;;7.70;;
20870;SDS011;10595;51.218;3.452;2024-01-25T05:27:13;44.20;;;8.33;;
20870;SDS011;10595;51.218;3.452;2024-01-25T05:29:39;43.77;;;7.23;;
20870;SDS011;10595;51.218;3.452;2024-01-25T05:32:05;34.37;;;6.57;;
20870;SDS011;10595;51.218;3.452;2024-01-25T05:34:31;44.57;;;7.80;;
20870;SDS011;10595;51.218;3.452;2024-01-25T05:36:57;40.03;;;7.60;;
20870;SDS011;10595;51.218;3.452;2024-01-25T05:39:23;43.00;;;8.57;;
20870;SDS011;10595;51.218;3.452;2024-01-25T05:41:49;32.83;;;8.17;;
20870;SDS011;10595;51.218;3.452;2024-01-25T05:44:15;36.20;;;7.33;;
20870;SDS011;10595;51.218;3.452;2024-01-25T05:46:41;33.07;;;6.47;;
20870;SDS011;10595;51.218;3.452;2024-01-25T05:49:07;34.20;;;7.33;;
20870;SDS011;10595;51.218;3.452;2024-01-25T05:51:33;36.47;;;7.77;;
20870;SDS011;10595;51.218;3.452;2024-01-25T05:53:59;40.47;;;7.27;;
20870;SDS011;10595;51.218;3.452;2024-01-25T05:56:25;36.07;;;8.13;;
20870;SDS011;10595;51.218;3.452;2024-01-25T05:58:51;28.90;;;7.10;;
20870;SDS011;10595;51.218;3.452;2024-01-25T06:01:17;38.57;;;7.63;;
20870;SDS011;10595;51.218;3.452;2024-01-25T06:03:44;34.27;;;7.50;;
20870;SDS011;10595;51.218;3.452;2024-01-25T06:06:10;32.50;;;7.53;;
20870;SDS011;10595;51.218;3.452;2024-01-25T06:08:36;28.13;;;7.10;;
20870;SDS011;10595;51.218;3.452;2024-01-25T06:11:02;42.13;;;8.93;;
20870;SDS011;10595;51.218;3.452;2024-01-25T06:13:28;40.93;;;9.10;;
20870;SDS011;10595;51.218;3.452;2024-01-25T06:15:54;49.67;;;9.57;;
20870;SDS011;10595;51.218;3.452;2024-01-25T06:18:20;51.53;;;9.60;;
20870;SDS011;10595;51.218;3.452;2024-01-25T06:20:46;52.67;;;10.50;;
20870;SDS011;10595;51.218;3.452;2024-01-25T06:23:12;53.63;;;10.60;;
20870;SDS011;10595;51.218;3.452;2024-01-25T06:25:38;48.43;;;9.67;;
20870;SDS011;10595;51.218;3.452;2024-01-25T06:28:04;50.90;;;10.20;;
20870;SDS011;10595;51.218;3.452;2024-01-25T06:30:30;48.00;;;9.90;;
20870;SDS011;10595;51.218;3.452;2024-01-25T06:32:56;44.53;;;9.80;;
20870;SDS011;10595;51.218;3.452;2024-01-25T06:35:22;37.10;;;8.87;;
20870;SDS011;10595;51.218;3.452;2024-01-25T06:37:48;44.33;;;10.03;;
20870;SDS011;10595;51.218;3.452;2024-01-25T06:40:14;52.00;;;10.73;;
20870;SDS011;10595;51.218;3.452;2024-01-25T06:42:40;44.20;;;10.40;;
20870;SDS011;10595;51.218;3.452;2024-01-25T06:45:07;35.20;;;9.00;;
20870;SDS011;10595;51.218;3.452;2024-01-25T06:47:34;48.17;;;10.60;;
20870;SDS011;10595;51.218;3.452;2024-01-25T06:50:00;39.70;;;8.80;;
20870;SDS011;10595;51.218;3.452;2024-01-25T06:52:26;43.60;;;10.07;;
20870;SDS011;10595;51.218;3.452;2024-01-25T06:54:53;40.30;;;12.87;;
20870;SDS011;10595;51.218;3.452;2024-01-25T06:57:19;47.87;;;12.70;;
20870;SDS011;10595;51.218;3.452;2024-01-25T06:59:45;57.00;;;12.97;;
20870;SDS011;10595;51.218;3.452;2024-01-25T07:02:11;40.33;;;11.30;;
20870;SDS011;10595;51.218;3.452;2024-01-25T07:04:37;38.63;;;10.60;;
20870;SDS011;10595;51.218;3.452;2024-01-25T07:07:05;37.10;;;10.57;;
20870;SDS011;10595;51.218;3.452;2024-01-25T07:09:31;40.50;;;10.97;;
20870;SDS011;10595;51.218;3.452;2024-01-25T07:11:57;43.37;;;9.90;;
20870;SDS011;10595;51.218;3.452;2024-01-25T07:14:23;40.47;;;9.50;;
20870;SDS011;10595;51.218;3.452;2024-01-25T07:16:49;35.43;;;9.10;;
20870;SDS011;10595;51.218;3.452;2024-01-25T07:19:15;42.23;;;9.70;;
20870;SDS011;10595;51.218;3.452;2024-01-25T07:21:41;38.80;;;8.97;;
20870;SDS011;10595;51.218;3.452;2024-01-25T07:24:10;42.50;;;11.00;;
20870;SDS011;10595;51.218;3.452;2024-01-25T07:26:36;42.73;;;9.73;;
20870;SDS011;10595;51.218;3.452;2024-01-25T07:29:02;44.73;;;9.80;;
20870;SDS011;10595;51.218;3.452;2024-01-25T07:31:29;34.60;;;9.13;;
20870;SDS011;10595;51.218;3.452;2024-01-25T07:33:55;53.17;;;12.00;;
20870;SDS011;10595;51.218;3.452;2024-01-25T07:36:21;48.50;;;11.63;;
20870;SDS011;10595;51.218;3.452;2024-01-25T07:38:47;44.13;;;11.00;;
20870;SDS011;10595;51.218;3.452;2024-01-25T07:41:14;52.93;;;11.60;;
20870;SDS011;10595;51.218;3.452;2024-01-25T07:43:40;46.33;;;10.97;;
20870;SDS011;10595;51.218;3.452;2024-01-25T07:46:06;50.20;;;10.33;;
20870;SDS011;10595;51.218;3.452;2024-01-25T07:48:32;46.77;;;11.70;;
20870;SDS011;10595;51.218;3.452;2024-01-25T07:50:58;54.47;;;12.30;;
20870;SDS011;10595;51.218;3.452;2024-01-25T07:53:24;57.17;;;13.03;;
20870;SDS011;10595;51.218;3.452;2024-01-25T07:55:51;60.90;;;13.53;;
20870;SDS011;10595;51.218;3.452;2024-01-25T07:58:17;61.43;;;13.90;;
20870;SDS011;10595;51.218;3.452;2024-01-25T08:00:43;53.67;;;14.57;;
20870;SDS011;10595;51.218;3.452;2024-01-25T08:03:10;50.10;;;15.17;;
20870;SDS011;10595;51.218;3.452;2024-01-25T08:05:36;65.90;;;16.63;;
20870;SDS011;10595;51.218;3.452;2024-01-25T08:08:02;57.70;;;15.17;;
20870;SDS011;10595;51.218;3.452;2024-01-25T08:10:28;58.73;;;16.50;;
20870;SDS011;10595;51.218;3.452;2024-01-25T08:12:54;63.80;;;18.33;;
20870;SDS011;10595;51.218;3.452;2024-01-25T08:15:20;66.10;;;18.97;;
20870;SDS011;10595;51.218;3.452;2024-01-25T08:17:46;70.47;;;20.40;;
20870;SDS011;10595;51.218;3.452;2024-01-25T08:20:12;78.83;;;20.87;;
20870;SDS011;10595;51.218;3.452;2024-01-25T08:22:40;70.40;;;20.57;;
20870;SDS011;10595;51.218;3.452;2024-01-25T08:25:07;85.67;;;22.53;;
20870;SDS011;10595;51.218;3.452;2024-01-25T08:27:33;68.07;;;21.67;;
20870;SDS011;10595;51.218;3.452;2024-01-25T08:29:59;63.63;;;19.80;;
20870;SDS011;10595;51.218;3.452;2024-01-25T08:32:25;57.07;;;20.97;;
20870;SDS011;10595;51.218;3.452;2024-01-25T08:34:51;60.10;;;19.23;;
20870;SDS011;10595;51.218;3.452;2024-01-25T08:37:17;55.27;;;18.97;;
20870;SDS011;10595;51.218;3.452;2024-01-25T08:39:43;62.80;;;18.73;;
20870;SDS011;10595;51.218;3.452;2024-01-25T08:42:10;48.57;;;17.60;;
20870;SDS011;10595;51.218;3.452;2024-01-25T08:44:38;48.17;;;15.63;;
20870;SDS011;10595;51.218;3.452;2024-01-25T08:47:04;39.70;;;15.80;;
20870;SDS011;10595;51.218;3.452;2024-01-25T08:49:30;33.93;;;15.07;;
20870;SDS011;10595;51.218;3.452;2024-01-25T08:51:56;30.77;;;14.27;;
20870;SDS011;10595;51.218;3.452;2024-01-25T08:54:22;101.07;;;16.50;;
20870;SDS011;10595;51.218;3.452;2024-01-25T08:56:48;43.70;;;13.73;;
20870;SDS011;10595;51.218;3.452;2024-01-25T08:59:14;34.70;;;13.33;;
20870;SDS011;10595;51.218;3.452;2024-01-25T09:01:40;68.17;;;15.73;;
20870;SDS011;10595;51.218;3.452;2024-01-25T09:04:06;41.83;;;15.17;;
20870;SDS011;10595;51.218;3.452;2024-01-25T09:06:33;30.77;;;14.93;;
20870;SDS011;10595;51.218;3.452;2024-01-25T09:08:59;31.17;;;14.27;;
20870;SDS011;10595;51.218;3.452;2024-01-25T09:11:25;40.40;;;14.43;;
20870;SDS011;10595;51.218;3.452;2024-01-25T09:13:51;40.60;;;14.90;;
20870;SDS011;10595;51.218;3.452;2024-01-25T09:16:17;41.57;;;15.57;;
20870;SDS011;10595;51.218;3.452;2024-01-25T09:18:43;57.33;;;15.80;;
20870;SDS011;10595;51.218;3.452;2024-01-25T09:21:09;47.37;;;15.77;;
20870;SDS011;10595;51.218;3.452;2024-01-25T09:23:35;35.63;;;15.20;;
20870;SDS011;10595;51.218;3.452;2024-01-25T09:26:01;32.30;;;15.90;;
20870;SDS011;10595;51.218;3.452;2024-01-25T09:28:28;37.07;;;16.67;;
20870;SDS011;10595;51.218;3.452;2024-01-25T09:30:54;36.20;;;17.47;;
20870;SDS011;10595;51.218;3.452;2024-01-25T09:33:20;40.13;;;17.30;;
20870;SDS011;10595;51.218;3.452;2024-01-25T09:35:46;49.63;;;18.70;;
20870;SDS011;10595;51.218;3.452;2024-01-25T09:38:12;44.20;;;19.43;;
20870;SDS011;10595;51.218;3.452;2024-01-25T09:40:38;45.23;;;18.67;;
20870;SDS011;10595;51.218;3.452;2024-01-25T09:43:05;48.47;;;19.77;;
20870;SDS011;10595;51.218;3.452;2024-01-25T09:45:31;49.20;;;19.53;;
20870;SDS011;10595;51.218;3.452;2024-01-25T09:47:57;39.97;;;17.90;;
20870;SDS011;10595;51.218;3.452;2024-01-25T09:50:23;38.80;;;17.10;;
20870;SDS011;10595;51.218;3.452;2024-01-25T09:52:51;38.73;;;17.43;;
20870;SDS011;10595;51.218;3.452;2024-01-25T09:55:18;36.97;;;16.73;;
20870;SDS011;10595;51.218;3.452;2024-01-25T09:57:46;40.93;;;17.37;;
20870;SDS011;10595;51.218;3.452;2024-01-25T10:00:15;34.67;;;17.00;;
20870;SDS011;10595;51.218;3.452;2024-01-25T10:02:41;46.80;;;17.47;;
20870;SDS011;10595;51.218;3.452;2024-01-25T10:05:07;42.20;;;16.73;;
20870;SDS011;10595;51.218;3.452;2024-01-25T10:07:39;36.83;;;16.50;;
20870;SDS011;10595;51.218;3.452;2024-01-25T10:10:06;41.00;;;17.30;;
20870;SDS011;10595;51.218;3.452;2024-01-25T10:12:32;43.43;;;17.60;;
20870;SDS011;10595;51.218;3.452;2024-01-25T10:14:58;44.00;;;16.70;;
20870;SDS011;10595;51.218;3.452;2024-01-25T10:17:24;36.27;;;16.47;;
20870;SDS011;10595;51.218;3.452;2024-01-25T10:19:51;36.20;;;15.47;;
20870;SDS011;10595;51.218;3.452;2024-01-25T10:22:17;51.20;;;17.60;;
20870;SDS011;10595;51.218;3.452;2024-01-25T10:24:43;47.57;;;17.37;;
20870;SDS011;10595;51.218;3.452;2024-01-25T10:27:10;39.23;;;15.90;;
20870;SDS011;10595;51.218;3.452;2024-01-25T10:29:37;35.10;;;15.47;;
20870;SDS011;10595;51.218;3.452;2024-01-25T10:32:03;48.23;;;17.80;;
20870;SDS011;10595;51.218;3.452;2024-01-25T10:34:29;39.17;;;15.43;;
20870;SDS011;10595;51.218;3.452;2024-01-25T10:36:56;43.63;;;16.53;;
20870;SDS011;10595;51.218;3.452;2024-01-25T10:39:22;48.17;;;19.47;;
20870;SDS011;10595;51.218;3.452;2024-01-25T10:41:50;47.13;;;17.37;;
20870;SDS011;10595;51.218;3.452;2024-01-25T10:44:17;47.80;;;16.47;;
20870;SDS011;10595;51.218;3.452;2024-01-25T10:46:46;48.23;;;18.00;;
20870;SDS011;10595;51.218;3.452;2024-01-25T10:49:12;44.63;;;16.10;;
20870;SDS011;10595;51.218;3.452;2024-01-25T10:51:39;45.40;;;17.40;;
20870;SDS011;10595;51.218;3.452;2024-01-25T10:54:06;45.13;;;17.07;;
20870;SDS011;10595;51.218;3.452;2024-01-25T10:56:34;41.27;;;16.07;;
20870;SDS011;10595;51.218;3.452;2024-01-25T10:59:00;38.17;;;15.57;;
20870;SDS011;10595;51.218;3.452;2024-01-25T11:01:27;39.63;;;17.00;;
20870;SDS011;10595;51.218;3.452;2024-01-25T11:03:53;43.27;;;17.13;;
20870;SDS011;10595;51.218;3.452;2024-01-25T11:06:20;45.67;;;17.77;;
20870;SDS011;10595;51.218;3.452;2024-01-25T11:08:48;43.23;;;17.33;;
20870;SDS011;10595;51.218;3.452;2024-01-25T11:11:15;41.40;;;16.43;;
20870;SDS011;10595;51.218;3.452;2024-01-25T11:13:42;47.30;;;16.87;;
20870;SDS011;10595;51.218;3.452;2024-01-25T11:16:14;39.43;;;16.20;;
20870;SDS011;10595;51.218;3.452;2024-01-25T11:18:47;44.97;;;16.57;;
20870;SDS011;10595;51.218;3.452;2024-01-25T11:21:21;37.80;;;14.93;;
20870;SDS011;10595;51.218;3.452;2024-01-25T11:23:48;38.03;;;14.00;;
20870;SDS011;10595;51.218;3.452;2024-01-25T11:26:15;37.23;;;14.10;;
20870;SDS011;10595;51.218;3.452;2024-01-25T11:28:41;33.33;;;14.00;;
20870;SDS011;10595;51.218;3.452;2024-01-25T11:31:07;29.43;;;12.90;;
20870;SDS011;10595;51.218;3.452;2024-01-25T11:33:33;32.17;;;13.73;;
20870;SDS011;10595;51.218;3.452;2024-01-25T11:36:00;31.77;;;12.50;;
20870;SDS011;10595;51.218;3.452;2024-01-25T11:38:26;29.00;;;13.37;;
20870;SDS011;10595;51.218;3.452;2024-01-25T11:40:52;26.93;;;12.40;;
20870;SDS011;10595;51.218;3.452;2024-01-25T11:43:22;29.33;;;11.90;;
20870;SDS011;10595;51.218;3.452;2024-01-25T11:45:48;28.00;;;11.57;;
20870;SDS011;10595;51.218;3.452;2024-01-25T11:48:14;26.60;;;12.13;;
20870;SDS011;10595;51.218;3.452;2024-01-25T11:50:40;25.87;;;12.30;;
20870;SDS011;10595;51.218;3.452;2024-01-25T11:53:06;23.03;;;11.70;;
20870;SDS011;10595;51.218;3.452;2024-01-25T11:55:33;24.67;;;11.67;;
20870;SDS011;10595;51.218;3.452;2024-01-25T11:57:59;21.20;;;10.17;;
20870;SDS011;10595;51.218;3.452;2024-01-25T12:00:25;22.13;;;9.93;;
20870;SDS011;10595;51.218;3.452;2024-01-25T12:02:51;21.23;;;10.37;;
20870;SDS011;10595;51.218;3.452;2024-01-25T12:05:17;21.60;;;10.60;;
20870;SDS011;10595;51.218;3.452;2024-01-25T12:07:43;19.57;;;10.13;;
20870;SDS011;10595;51.218;3.452;2024-01-25T12:10:10;19.30;;;10.47;;
20870;SDS011;10595;51.218;3.452;2024-01-25T12:12:40;20.03;;;11.17;;
20870;SDS011;10595;51.218;3.452;2024-01-25T12:15:07;19.37;;;10.73;;
20870;SDS011;10595;51.218;3.452;2024-01-25T12:17:33;18.40;;;9.90;;
20870;SDS011;10595;51.218;3.452;2024-01-25T12:20:01;16.60;;;9.90;;
20870;SDS011;10595;51.218;3.452;2024-01-25T12:22:28;18.57;;;10.13;;
20870;SDS011;10595;51.218;3.452;2024-01-25T12:24:54;19.83;;;10.30;;
20870;SDS011;10595;51.218;3.452;2024-01-25T12:27:21;17.47;;;10.40;;
20870;SDS011;10595;51.218;3.452;2024-01-25T12:29:48;16.63;;;9.47;;
20870;SDS011;10595;51.218;3.452;2024-01-25T12:32:14;17.17;;;9.93;;
20870;SDS011;10595;51.218;3.452;2024-01-25T12:34:40;18.37;;;9.90;;
20870;SDS011;10595;51.218;3.452;2024-01-25T12:37:07;17.63;;;10.33;;
20870;SDS011;10595;51.218;3.452;2024-01-25T12:39:33;18.93;;;11.83;;
20870;SDS011;10595;51.218;3.452;2024-01-25T12:41:59;21.00;;;10.80;;
20870;SDS011;10595;51.218;3.452;2024-01-25T12:44:25;15.27;;;9.80;;
20870;SDS011;10595;51.218;3.452;2024-01-25T12:46:51;15.00;;;9.27;;
20870;SDS011;10595;51.218;3.452;2024-01-25T12:49:17;16.37;;;9.80;;
20870;SDS011;10595;51.218;3.452;2024-01-25T12:51:46;15.40;;;10.53;;
20870;SDS011;10595;51.218;3.452;2024-01-25T12:54:12;15.60;;;10.13;;
20870;SDS011;10595;51.218;3.452;2024-01-25T12:56:38;13.73;;;10.77;;
20870;SDS011;10595;51.218;3.452;2024-01-25T12:59:05;14.23;;;9.60;;
20870;SDS011;10595;51.218;3.452;2024-01-25T13:01:31;15.00;;;10.20;;
20870;SDS011;10595;51.218;3.452;2024-01-25T13:03:57;16.13;;;10.83;;
20870;SDS011;10595;51.218;3.452;2024-01-25T13:06:23;14.60;;;10.70;;
20870;SDS011;10595;51.218;3.452;2024-01-25T13:08:49;17.53;;;10.90;;
20870;SDS011;10595;51.218;3.452;2024-01-25T13:11:15;15.17;;;11.07;;
20870;SDS011;10595;51.218;3.452;2024-01-25T13:13:41;17.30;;;11.43;;
20870;SDS011;10595;51.218;3.452;2024-01-25T13:16:10;16.67;;;11.90;;
20870;SDS011;10595;51.218;3.452;2024-01-25T13:18:36;19.23;;;12.10;;
20870;SDS011;10595;51.218;3.452;2024-01-25T13:21:02;18.53;;;12.33;;
20870;SDS011;10595;51.218;3.452;2024-01-25T13:23:28;17.97;;;11.73;;
20870;SDS011;10595;51.218;3.452;2024-01-25T13:25:54;19.10;;;12.57;;
20870;SDS011;10595;51.218;3.452;2024-01-25T13:28:20;20.13;;;12.97;;
20870;SDS011;10595;51.218;3.452;2024-01-25T13:30:46;23.70;;;14.10;;
20870;SDS011;10595;51.218;3.452;2024-01-25T13:33:12;20.13;;;14.80;;
20870;SDS011;10595;51.218;3.452;2024-01-25T13:35:38;23.90;;;14.67;;
20870;SDS011;10595;51.218;3.452;2024-01-25T13:38:04;25.67;;;14.97;;
20870;SDS011;10595;51.218;3.452;2024-01-25T13:40:30;26.87;;;15.07;;
20870;SDS011;10595;51.218;3.452;2024-01-25T13:42:56;28.90;;;17.07;;
20870;SDS011;10595;51.218;3.452;2024-01-25T13:45:22;34.17;;;18.17;;
20870;SDS011;10595;51.218;3.452;2024-01-25T13:47:48;32.93;;;18.17;;
20870;SDS011;10595;51.218;3.452;2024-01-25T13:50:14;35.67;;;19.03;;
20870;SDS011;10595;51.218;3.452;2024-01-25T13:52:40;34.70;;;19.53;;
20870;SDS011;10595;51.218;3.452;2024-01-25T13:55:06;33.17;;;19.40;;
20870;SDS011;10595;51.218;3.452;2024-01-25T13:57:32;35.50;;;20.20;;
20870;SDS011;10595;51.218;3.452;2024-01-25T13:59:58;37.67;;;20.37;;
20870;SDS011;10595;51.218;3.452;2024-01-25T14:02:24;37.53;;;21.77;;
20870;SDS011;10595;51.218;3.452;2024-01-25T14:04:50;40.10;;;21.20;;
20870;SDS011;10595;51.218;3.452;2024-01-25T14:07:16;40.70;;;23.03;;
20870;SDS011;10595;51.218;3.452;2024-01-25T14:09:43;38.87;;;22.83;;
20870;SDS011;10595;51.218;3.452;2024-01-25T14:12:09;49.17;;;26.40;;
20870;SDS011;10595;51.218;3.452;2024-01-25T14:14:36;51.83;;;25.93;;
20870;SDS011;10595;51.218;3.452;2024-01-25T14:17:02;44.63;;;25.90;;
20870;SDS011;10595;51.218;3.452;2024-01-25T14:19:28;49.00;;;26.67;;
20870;SDS011;10595;51.218;3.452;2024-01-25T14:21:54;52.80;;;26.83;;